WBGG

Kuching International Airport

Kuching, Malaysia
TAF WBGG 211700Z 2118/2218 VRB03KT 9999 FEW020 TEMPO 2208/2212 12006KT 3000 TSRA FEW015CB SCT018
Issued Valid From Valid To
Jun-21 @ 17:00 UTC
(an hour ago)
Jun-21 @ 18:00 UTC
(11 minutes ago)
Jun-22 @ 18:00 UTC
(in 24 hours)
Jun-21 @ 18:00 to Jun-22 @ 18:00
TAF WBGG 211700Z 2118/2218 VRB03KT 9999 FEW020
Wind Visibility Clouds
Variable at 3 knots 10,000+ meters
  • Few at 2,000' AGL
Temporary Jun-22 @ 08:00 to Jun-22 @ 12:00
TEMPO 2208/2212 12006KT 3000 TSRA FEW015CB SCT018
Wind Visibility Clouds Conditions
120° at 6 knots 2,993 meters
  • Few at 1,500' AGL
  • Scattered at 1,800' AGL
  • Thunderstorm
  • Rain
TAF WBGG 211700Z 2118/2218 VRB03KT 9999 FEW020 TEMPO 2208/2212 12006KT 3000 TSRA FEW015CB SCT018
Issued Jun-21 @ 17:00 UTC
(an hour ago)
Valid From Jun-21 @ 18:00 UTC
(11 minutes ago)
Valid To Jun-22 @ 18:00 UTC
(in 24 hours)
Jun-21 @ 18:00 - Jun-22 @ 18:00
Wind Visibility
Variable at 3 knots 10,000+ meters
Clouds
  • Few at 2,000' AGL
Temporary Jun-22 @ 08:00 - Jun-22 @ 12:00
Wind Visibility
120° at 6 knots 2,993 meters
Clouds
  • Few at 1,500' AGL
  • Scattered at 1,800' AGL
Conditions
  • Thunderstorm
  • Rain